Time;durP1;ratioP1;P1;durP2;ratioP2;P2;SDS_P1;SDS_P2;PMS_P1;PMS_P2;Temp;Humidity;BMP_temperature;BMP_pressure;BME280_temperature;BME280_humidity;BME280_pressure;Samples;Min_cycle;Max_cycle;Signal;HPM_P1;HPM_P2
2024/01/21 00:00:58;;;;;;;20.48;7.72;;;;;;;2.86;57.14;102597.41;4951656;28;96762;-69
2024/01/21 00:03:25;;;;;;;18.13;8.50;;;;;;;2.88;57.64;102590.53;4951668;28;98753;-70
2024/01/21 00:05:52;;;;;;;18.92;8.35;;;;;;;2.75;58.51;102591.94;4953804;28;98584;-70
2024/01/21 00:08:19;;;;;;;20.45;8.63;;;;;;;2.70;57.81;102590.91;4951081;28;96866;-69
2024/01/21 00:10:45;;;;;;;23.50;8.93;;;;;;;2.68;57.96;102584.78;4951918;28;97151;-69
2024/01/21 00:13:11;;;;;;;16.35;8.88;;;;;;;2.61;58.41;102588.09;4948149;28;101325;-69
2024/01/21 00:15:38;;;;;;;16.48;8.48;;;;;;;2.44;58.44;102581.50;4950942;28;99300;-69
2024/01/21 00:18:05;;;;;;;18.45;8.40;;;;;;;2.48;58.39;102577.28;4949489;28;98130;-70
2024/01/21 00:20:32;;;;;;;21.42;8.73;;;;;;;2.53;58.07;102581.78;4951684;28;96820;-69
2024/01/21 00:23:00;;;;;;;20.05;8.27;;;;;;;2.48;59.04;102577.28;4947849;28;98338;-70
2024/01/21 00:25:26;;;;;;;17.75;8.77;;;;;;;2.35;58.21;102584.78;4950042;28;99590;-70
2024/01/21 00:27:53;;;;;;;15.20;8.30;;;;;;;2.34;58.76;102577.78;4950959;28;96766;-70
2024/01/21 00:30:20;;;;;;;13.80;7.95;;;;;;;2.54;58.42;102578.31;4945981;28;97755;-71
2024/01/21 00:32:46;;;;;;;21.65;9.52;;;;;;;2.38;58.29;102581.34;4949735;28;101547;-70
2024/01/21 00:35:13;;;;;;;19.50;8.65;;;;;;;2.57;58.09;102567.94;4949731;28;101654;-70
2024/01/21 00:37:39;;;;;;;17.98;9.55;;;;;;;2.44;57.77;102576.28;4949598;28;96905;-71
2024/01/21 00:40:09;;;;;;;20.95;9.20;;;;;;;2.33;57.48;102570.81;4950780;28;96963;-69
2024/01/21 00:42:35;;;;;;;20.15;9.35;;;;;;;2.26;57.76;102571.47;4950215;28;101054;-70
2024/01/21 00:45:01;;;;;;;18.95;8.93;;;;;;;2.33;57.77;102565.59;4950511;28;99144;-70
2024/01/21 00:47:28;;;;;;;20.08;9.48;;;;;;;2.37;57.34;102562.19;4945037;28;97660;-70
2024/01/21 00:49:55;;;;;;;21.30;9.52;;;;;;;2.44;57.30;102559.75;4949047;28;97317;-70
2024/01/21 00:52:21;;;;;;;18.38;8.55;;;;;;;2.25;57.56;102556.66;4946799;28;98291;-70
2024/01/21 00:54:48;;;;;;;20.02;8.80;;;;;;;2.15;57.53;102559.88;4949790;28;99028;-69
2024/01/21 00:57:16;;;;;;;18.00;8.93;;;;;;;2.15;57.27;102552.06;4950629;28;96771;-69
2024/01/21 00:59:43;;;;;;;20.55;9.18;;;;;;;2.14;57.67;102552.00;4951068;28;96797;-69
2024/01/21 01:02:10;;;;;;;17.40;8.45;;;;;;;2.12;57.09;102551.06;4950471;28;101755;-69
2024/01/21 01:04:36;;;;;;;16.95;8.00;;;;;;;2.18;57.37;102551.22;4948719;28;98927;-69
2024/01/21 01:07:03;;;;;;;19.27;8.77;;;;;;;2.09;57.10;102548.38;4950333;28;96728;-70
2024/01/21 01:09:29;;;;;;;18.48;9.25;;;;;;;2.01;57.78;102550.78;4945070;28;102193;-69
2024/01/21 01:11:56;;;;;;;19.13;8.90;;;;;;;2.17;56.69;102539.03;4949317;28;99611;-71
2024/01/21 01:14:23;;;;;;;16.92;8.57;;;;;;;2.20;57.32;102545.22;4949574;28;98127;-69
2024/01/21 01:16:50;;;;;;;17.75;8.40;;;;;;;2.08;56.88;102547.50;4950557;28;99742;-69
2024/01/21 01:19:17;;;;;;;16.27;8.63;;;;;;;2.11;56.84;102551.91;4949881;28;97385;-70
2024/01/21 01:21:43;;;;;;;15.82;8.30;;;;;;;2.12;56.87;102564.09;4950402;28;98874;-69
2024/01/21 01:24:10;;;;;;;15.02;8.10;;;;;;;2.08;56.80;102555.31;4945181;28;99037;-70
2024/01/21 01:26:36;;;;;;;17.90;8.23;;;;;;;2.04;56.34;102547.34;4949809;28;96731;-69
2024/01/21 01:29:09;;;;;;;20.10;7.97;;;;;;;2.25;56.06;102547.94;4946194;28;96987;-71
2024/01/21 01:31:38;;;;;;;20.08;9.07;;;;;;;2.17;56.21;102550.34;4947600;28;97801;-70
2024/01/21 01:34:05;;;;;;;17.00;8.95;;;;;;;1.98;56.36;102548.06;4946229;28;99649;-71
2024/01/21 01:36:31;;;;;;;21.48;9.15;;;;;;;1.90;56.01;102544.38;4949335;28;98035;-70
2024/01/21 01:38:57;;;;;;;19.63;8.13;;;;;;;2.08;55.99;102544.00;4947668;28;96770;-70
2024/01/21 01:41:24;;;;;;;19.58;8.13;;;;;;;2.11;56.06;102539.75;4947189;28;98914;-71
2024/01/21 01:43:50;;;;;;;15.90;7.65;;;;;;;2.09;55.82;102541.44;4946113;28;99677;-69
2024/01/21 01:46:17;;;;;;;14.15;7.68;;;;;;;1.92;55.98;102540.97;4948875;28;96969;-69
2024/01/21 01:48:45;;;;;;;18.63;7.72;;;;;;;1.90;56.27;102534.81;4946707;28;97071;-69
2024/01/21 01:51:12;;;;;;;19.25;8.07;;;;;;;1.92;55.81;102537.47;4947794;28;98870;-69
2024/01/21 01:53:38;;;;;;;17.45;8.00;;;;;;;1.92;55.75;102538.34;4939563;28;98569;-69
2024/01/21 01:56:05;;;;;;;17.95;8.02;;;;;;;1.98;55.86;102528.09;4944598;28;96745;-69
2024/01/21 01:58:34;;;;;;;17.27;8.63;;;;;;;1.81;55.76;102526.75;4947759;28;99139;-70
2024/01/21 02:01:01;;;;;;;16.85;8.02;;;;;;;1.90;55.77;102528.75;4945562;28;98939;-69
2024/01/21 02:03:28;;;;;;;16.80;8.23;;;;;;;1.96;55.81;102515.88;4944336;28;102044;-68
2024/01/21 02:05:56;;;;;;;16.35;7.68;;;;;;;1.78;55.39;102523.16;4949866;28;97234;-69
2024/01/21 02:08:22;;;;;;;16.73;7.53;;;;;;;1.86;55.53;102526.88;4946156;28;96954;-69
2024/01/21 02:10:49;;;;;;;14.00;7.72;;;;;;;1.78;55.65;102520.56;4940361;28;100714;-70
2024/01/21 02:13:16;;;;;;;14.95;7.25;;;;;;;1.79;55.42;102510.19;4944130;28;98997;-69
2024/01/21 02:15:42;;;;;;;15.50;7.50;;;;;;;1.71;55.75;102516.88;4946588;28;96898;-69
2024/01/21 02:18:09;;;;;;;18.00;8.07;;;;;;;1.62;55.79;102506.22;4950655;28;97240;-68
2024/01/21 02:20:35;;;;;;;16.55;7.80;;;;;;;1.39;56.00;102515.06;4945127;28;101109;-68
2024/01/21 02:23:06;;;;;;;17.80;7.88;;;;;;;1.67;55.76;102507.22;4945551;28;100925;-69
2024/01/21 02:25:33;;;;;;;26.70;7.82;;;;;;;1.73;55.68;102507.41;4947627;28;97372;-69
2024/01/21 02:27:59;;;;;;;15.32;7.30;;;;;;;1.58;55.67;102510.44;4943357;28;97511;-69
2024/01/21 02:30:25;;;;;;;17.55;7.13;;;;;;;1.65;55.31;102494.97;4939277;28;98254;-70
2024/01/21 02:32:52;;;;;;;16.90;7.78;;;;;;;1.63;55.88;102502.78;4942788;28;98846;-70
2024/01/21 02:35:18;;;;;;;13.95;7.72;;;;;;;1.59;55.12;102493.09;4939016;28;96832;-69
2024/01/21 02:37:44;;;;;;;15.45;6.75;;;;;;;1.48;55.26;102502.31;4947852;28;97136;-70
2024/01/21 02:40:12;;;;;;;13.90;7.38;;;;;;;1.50;55.48;102503.25;4947818;28;98434;-70
2024/01/21 02:42:39;;;;;;;17.50;7.15;;;;;;;1.56;54.87;102506.94;4939405;28;99438;-70
2024/01/21 02:45:06;;;;;;;17.23;6.70;;;;;;;1.52;54.83;102494.63;4953071;28;98105;-69
2024/01/21 02:47:32;;;;;;;15.52;7.50;;;;;;;1.33;54.90;102494.03;4941808;28;97064;-70
2024/01/21 02:49:58;;;;;;;14.90;7.22;;;;;;;1.28;55.57;102490.44;4941720;28;99206;-70
2024/01/21 02:52:25;;;;;;;16.13;7.05;;;;;;;1.34;54.95;102490.59;4939550;28;97885;-75
2024/01/21 02:54:51;;;;;;;13.75;6.80;;;;;;;1.36;54.74;102491.56;4943250;28;97520;-69
2024/01/21 02:57:19;;;;;;;14.32;6.95;;;;;;;1.21;54.70;102489.38;4946101;28;97355;-69
2024/01/21 02:59:45;;;;;;;13.13;7.00;;;;;;;1.22;54.94;102482.44;4949808;28;99932;-76
2024/01/21 03:02:12;;;;;;;15.05;6.43;;;;;;;1.26;54.71;102485.16;4949294;28;99060;-70
2024/01/21 03:04:38;;;;;;;19.45;6.82;;;;;;;1.34;54.06;102470.66;4946504;28;98565;-75
2024/01/21 03:07:05;;;;;;;11.73;6.63;;;;;;;1.08;54.45;102487.22;4946234;28;98342;-71
2024/01/21 03:09:31;;;;;;;14.18;6.53;;;;;;;1.29;54.55;102474.84;4952982;28;99375;-70
2024/01/21 03:11:58;;;;;;;14.90;6.63;;;;;;;1.23;53.80;102477.28;4949221;28;98260;-76
2024/01/21 03:14:25;;;;;;;17.33;7.35;;;;;;;1.15;54.69;102484.84;4951807;28;97231;-76
2024/01/21 03:16:52;;;;;;;13.65;6.80;;;;;;;1.09;54.19;102487.28;4952827;28;97710;-75
2024/01/21 03:19:18;;;;;;;16.02;6.30;;;;;;;1.27;53.48;102481.72;4953382;28;98630;-74
2024/01/21 03:21:45;;;;;;;14.13;6.85;;;;;;;1.40;53.66;102480.38;4951817;28;98869;-74
2024/01/21 03:24:11;;;;;;;15.05;6.32;;;;;;;1.41;53.36;102484.75;4945906;28;97709;-74
2024/01/21 03:26:39;;;;;;;12.82;6.32;;;;;;;1.43;53.31;102496.09;4952001;28;97704;-75
2024/01/21 03:29:05;;;;;;;12.15;6.13;;;;;;;1.22;53.18;102492.84;4948669;28;100417;-74
2024/01/21 03:31:33;;;;;;;14.95;6.72;;;;;;;1.26;52.55;102487.78;4951826;28;98144;-70
2024/01/21 03:34:00;;;;;;;10.43;5.60;;;;;;;1.33;52.91;102494.03;4950246;28;96923;-70
2024/01/21 03:36:26;;;;;;;11.20;6.22;;;;;;;1.42;52.50;102500.44;4949386;28;96889;-75
2024/01/21 03:38:52;;;;;;;11.25;5.85;;;;;;;1.49;52.46;102499.78;4951572;28;99320;-70
2024/01/21 03:41:19;;;;;;;14.70;7.45;;;;;;;1.48;51.88;102502.31;4952086;28;98919;-70
2024/01/21 03:43:45;;;;;;;14.77;6.75;;;;;;;1.22;52.19;102503.25;4954445;28;97286;-70
2024/01/21 03:46:12;;;;;;;10.93;6.13;;;;;;;1.32;52.20;102505.28;4952668;28;96712;-70
2024/01/21 03:48:40;;;;;;;14.63;6.88;;;;;;;1.52;51.71;102499.84;4949951;28;99361;-76
2024/01/21 03:51:06;;;;;;;14.55;6.40;;;;;;;1.23;52.18;102500.72;4949400;28;99242;-75
2024/01/21 03:53:32;;;;;;;11.48;5.72;;;;;;;1.33;51.37;102494.03;4948227;28;97829;-75
2024/01/21 03:55:59;;;;;;;13.27;6.55;;;;;;;1.35;51.93;102495.88;4947154;28;96749;-75
2024/01/21 03:58:25;;;;;;;14.02;6.25;;;;;;;1.11;51.27;102496.03;4947532;28;97873;-75
2024/01/21 04:00:51;;;;;;;15.10;6.68;;;;;;;1.20;51.64;102498.88;4957993;28;99079;-75
2024/01/21 04:03:18;;;;;;;11.93;6.28;;;;;;;1.30;51.41;102501.78;4949830;28;97047;-75
2024/01/21 04:05:46;;;;;;;16.17;6.55;;;;;;;1.22;51.69;102495.44;4951729;28;97416;-75
2024/01/21 04:08:12;;;;;;;13.77;6.60;;;;;;;1.24;51.76;102480.78;4946163;28;98918;-75
2024/01/21 04:10:41;;;;;;;12.13;6.30;;;;;;;1.16;51.11;102486.63;4954023;28;99309;-75
2024/01/21 04:13:08;;;;;;;11.57;5.95;;;;;;;1.27;51.37;102478.25;4944390;28;97417;-70
2024/01/21 04:15:35;;;;;;;12.82;6.05;;;;;;;1.12;51.30;102484.75;4951324;28;97592;-69
2024/01/21 04:18:01;;;;;;;16.15;6.72;;;;;;;1.35;51.29;102469.81;4951564;28;98325;-69
2024/01/21 04:20:28;;;;;;;12.45;6.28;;;;;;;1.27;51.23;102462.63;4946810;28;97577;-71
2024/01/21 04:22:55;;;;;;;12.73;6.22;;;;;;;1.35;51.07;102464.63;4950772;28;97838;-70
2024/01/21 04:25:22;;;;;;;15.15;6.55;;;;;;;1.44;50.47;102458.81;4951626;28;99881;-70
2024/01/21 04:27:48;;;;;;;14.65;6.45;;;;;;;1.22;49.96;102444.25;4952233;28;98987;-70
2024/01/21 04:30:14;;;;;;;12.02;5.85;;;;;;;1.37;50.08;102449.03;4942202;28;99237;-71
2024/01/21 04:32:41;;;;;;;10.95;5.88;;;;;;;1.35;49.89;102441.19;4945421;28;97087;-70
2024/01/21 04:35:08;;;;;;;11.38;5.35;;;;;;;1.50;48.96;102448.56;4948155;28;97262;-70
2024/01/21 04:37:35;;;;;;;13.10;5.60;;;;;;;1.44;49.60;102446.66;4947056;28;99107;-70
2024/01/21 04:40:03;;;;;;;13.25;5.85;;;;;;;1.44;49.28;102451.00;4948550;28;100656;-71
2024/01/21 04:42:30;;;;;;;11.73;5.75;;;;;;;1.54;49.34;102442.56;4947510;28;98465;-70
2024/01/21 04:44:56;;;;;;;11.18;5.88;;;;;;;1.49;49.79;102434.66;4950194;28;97266;-70
2024/01/21 04:47:23;;;;;;;12.23;5.47;;;;;;;1.56;49.36;102433.09;4950559;28;98992;-71
2024/01/21 04:49:49;;;;;;;14.38;6.65;;;;;;;1.55;49.60;102446.97;4949639;28;98950;-70
2024/01/21 04:52:15;;;;;;;13.77;7.05;;;;;;;1.56;48.72;102448.72;4947983;28;97637;-71
2024/01/21 04:54:42;;;;;;;15.40;6.30;;;;;;;1.56;48.89;102460.03;4949246;28;97402;-70
2024/01/21 04:57:09;;;;;;;11.55;5.68;;;;;;;1.56;48.96;102466.97;4945469;28;100616;-71
2024/01/21 04:59:36;;;;;;;12.18;5.55;;;;;;;1.71;48.26;102462.16;4950842;28;102062;-70
2024/01/21 05:02:02;;;;;;;12.50;6.38;;;;;;;1.79;47.95;102458.06;4948715;28;96840;-75
2024/01/21 05:04:28;;;;;;;11.35;5.75;;;;;;;1.80;47.80;102454.59;4947085;28;100528;-75
2024/01/21 05:06:55;;;;;;;12.52;6.15;;;;;;;1.51;47.94;102463.34;4948833;28;100967;-76
2024/01/21 05:09:22;;;;;;;12.77;7.00;;;;;;;1.46;48.43;102452.78;4951228;28;99561;-76
2024/01/21 05:11:48;;;;;;;11.85;5.93;;;;;;;1.48;48.48;102451.09;4950496;28;97206;-76
2024/01/21 05:14:16;;;;;;;10.57;6.32;;;;;;;1.74;48.21;102444.00;4945507;28;97567;-77
2024/01/21 05:16:42;;;;;;;11.30;5.85;;;;;;;1.54;48.26;102437.38;4954464;28;98997;-76
2024/01/21 05:19:09;;;;;;;16.13;7.00;;;;;;;1.45;48.68;102450.13;4950501;28;97805;-77
2024/01/21 05:21:35;;;;;;;10.65;5.97;;;;;;;1.55;47.88;102447.84;4950688;28;97209;-77
2024/01/21 05:24:02;;;;;;;14.68;6.53;;;;;;;1.40;47.94;102449.13;4950714;28;98059;-77
2024/01/21 05:26:28;;;;;;;15.55;6.45;;;;;;;1.39;48.53;102452.56;4949659;28;99216;-70
2024/01/21 05:28:55;;;;;;;11.98;5.70;;;;;;;1.58;48.15;102441.81;4950467;28;100626;-70
2024/01/21 05:31:27;;;;;;;13.52;6.18;;;;;;;1.55;48.39;102445.22;4948712;28;97419;-70
2024/01/21 05:33:53;;;;;;;13.38;6.28;;;;;;;1.47;48.17;102448.44;4950248;28;97051;-70
2024/01/21 05:36:20;;;;;;;13.02;6.38;;;;;;;1.62;47.33;102443.69;4950277;28;98754;-70
2024/01/21 05:38:46;;;;;;;10.93;5.88;;;;;;;1.69;47.29;102437.81;4947724;28;99983;-70
2024/01/21 05:41:13;;;;;;;12.88;6.43;;;;;;;1.84;47.34;102439.91;4946845;28;98488;-71
2024/01/21 05:43:40;;;;;;;14.27;7.03;;;;;;;1.89;46.98;102436.63;4948757;28;97315;-71
2024/01/21 05:46:06;;;;;;;10.90;6.10;;;;;;;1.98;46.48;102442.06;4949823;28;99536;-71
2024/01/21 05:48:34;;;;;;;10.00;5.75;;;;;;;1.93;46.79;102441.06;4948013;28;101594;-71
2024/01/21 05:51:01;;;;;;;14.18;7.20;;;;;;;2.00;46.47;102434.28;4950302;28;96971;-71
2024/01/21 05:53:28;;;;;;;13.13;5.95;;;;;;;2.06;46.59;102426.63;4944073;28;97103;-71
2024/01/21 05:55:54;;;;;;;11.82;5.80;;;;;;;2.00;46.36;102426.47;4945814;28;99147;-71
2024/01/21 05:58:21;;;;;;;8.40;5.25;;;;;;;1.95;46.54;102428.97;4945418;28;99019;-71
2024/01/21 06:00:47;;;;;;;10.77;5.70;;;;;;;1.95;46.41;102418.53;4944990;28;97661;-71
2024/01/21 06:03:13;;;;;;;12.45;5.90;;;;;;;2.17;46.52;102416.44;4946484;28;97438;-71
2024/01/21 06:05:41;;;;;;;9.57;5.30;;;;;;;2.14;45.96;102409.44;4951154;28;99280;-72
2024/01/21 06:08:07;;;;;;;9.75;5.75;;;;;;;2.13;45.94;102404.19;4948684;28;99795;-71
2024/01/21 06:10:34;;;;;;;10.82;5.95;;;;;;;2.00;46.34;102398.66;4955353;28;97659;-70
2024/01/21 06:13:00;;;;;;;13.05;6.05;;;;;;;2.08;46.58;102396.25;4948240;28;98233;-72
2024/01/21 06:15:26;;;;;;;11.32;5.95;;;;;;;2.25;46.79;102399.28;4953216;28;99346;-71
2024/01/21 06:17:53;;;;;;;11.13;5.97;;;;;;;2.36;45.54;102396.06;4946176;28;99547;-70
2024/01/21 06:20:19;;;;;;;10.30;5.57;;;;;;;2.27;45.54;102394.97;4942469;28;97008;-71
2024/01/21 06:22:47;;;;;;;11.10;6.20;;;;;;;2.17;45.89;102392.97;4951978;28;97578;-71
2024/01/21 06:25:13;;;;;;;10.60;5.35;;;;;;;2.10;46.05;102396.31;4947369;28;99135;-71
2024/01/21 06:27:40;;;;;;;10.40;5.72;;;;;;;2.22;46.26;102392.28;4946676;28;99317;-71
2024/01/21 06:30:13;;;;;;;11.82;5.78;;;;;;;2.26;46.05;102393.22;4950756;28;97009;-69
2024/01/21 06:32:39;;;;;;;11.73;6.07;;;;;;;2.13;46.39;102391.16;4949207;28;97724;-70
2024/01/21 06:35:06;;;;;;;11.90;5.95;;;;;;;2.20;45.72;102387.84;4949660;28;99333;-70
2024/01/21 06:37:32;;;;;;;11.65;6.10;;;;;;;2.13;46.50;102398.97;4950864;28;97245;-71
2024/01/21 06:40:00;;;;;;;16.85;6.50;;;;;;;2.05;46.65;102400.50;4950466;28;96831;-70
2024/01/21 06:42:28;;;;;;;11.43;6.20;;;;;;;2.23;46.36;102390.56;4949466;28;97129;-70
2024/01/21 06:44:54;;;;;;;13.30;6.03;;;;;;;2.37;45.99;102383.91;4955437;28;98857;-69
2024/01/21 06:47:20;;;;;;;12.18;5.78;;;;;;;2.29;45.86;102375.03;4957483;28;101358;-70
2024/01/21 06:49:47;;;;;;;11.75;5.57;;;;;;;2.21;46.12;102382.69;4953342;28;96701;-69
2024/01/21 06:52:13;;;;;;;13.80;6.00;;;;;;;2.25;46.42;102387.13;4950915;28;97387;-69
2024/01/21 06:54:40;;;;;;;11.48;5.97;;;;;;;2.42;45.72;102397.97;4952610;28;103871;-69
2024/01/21 06:57:08;;;;;;;10.50;6.35;;;;;;;2.32;46.39;102398.59;4953963;28;99704;-71
2024/01/21 06:59:34;;;;;;;17.48;5.72;;;;;;;2.41;46.28;102398.81;4949600;28;97120;-69
2024/01/21 07:02:00;;;;;;;15.00;6.32;;;;;;;2.49;45.63;102393.78;4949224;28;96934;-69
2024/01/21 07:04:27;;;;;;;12.63;6.05;;;;;;;2.42;45.54;102392.75;4949723;28;98924;-70
2024/01/21 07:06:53;;;;;;;12.73;5.25;;;;;;;2.43;45.74;102376.22;4952395;28;99281;-69
2024/01/21 07:09:19;;;;;;;9.77;4.68;;;;;;;2.37;46.11;102378.69;4952182;28;96823;-70
2024/01/21 07:11:46;;;;;;;10.70;6.07;;;;;;;2.34;45.94;102378.63;4950505;28;97693;-70
2024/01/21 07:14:15;;;;;;;10.82;5.30;;;;;;;2.34;45.81;102376.03;4950529;28;98921;-69
2024/01/21 07:16:41;;;;;;;10.98;6.05;;;;;;;2.46;45.73;102376.31;4948570;28;98946;-69
2024/01/21 07:19:08;;;;;;;11.35;5.57;;;;;;;2.36;45.64;102379.56;4946146;28;96931;-70
2024/01/21 07:21:34;;;;;;;11.15;5.40;;;;;;;2.25;46.16;102378.41;4956498;28;98223;-69
2024/01/21 07:24:00;;;;;;;9.40;4.97;;;;;;;2.43;46.03;102378.84;4950367;28;99425;-69
2024/01/21 07:26:27;;;;;;;11.75;5.47;;;;;;;2.43;45.76;102373.63;4950577;28;99198;-70
2024/01/21 07:28:54;;;;;;;8.98;5.00;;;;;;;2.48;45.79;102373.75;4951513;28;96814;-70
2024/01/21 07:31:21;;;;;;;8.25;5.18;;;;;;;2.37;45.89;102381.31;4947828;28;98823;-71
2024/01/21 07:33:48;;;;;;;9.63;5.15;;;;;;;2.52;45.75;102386.91;4945029;28;98968;-70
2024/01/21 07:36:14;;;;;;;11.57;5.70;;;;;;;2.45;46.08;102373.66;4945490;28;98888;-70
2024/01/21 07:38:40;;;;;;;10.38;5.50;;;;;;;2.61;45.45;102368.84;4946298;28;98411;-71
2024/01/21 07:41:07;;;;;;;7.05;4.70;;;;;;;2.62;45.72;102377.56;4946403;28;98472;-70
2024/01/21 07:43:33;;;;;;;9.38;5.10;;;;;;;2.55;45.92;102375.66;4947387;28;98190;-70
2024/01/21 07:45:59;;;;;;;9.65;5.18;;;;;;;2.62;45.67;102374.97;4950578;28;99307;-70
2024/01/21 07:48:27;;;;;;;10.50;5.20;;;;;;;2.52;45.13;102357.31;4951357;28;96889;-69
2024/01/21 07:50:54;;;;;;;11.75;5.50;;;;;;;2.69;45.83;102341.16;4948128;28;96812;-70
2024/01/21 07:53:20;;;;;;;12.38;5.45;;;;;;;2.59;45.65;102341.81;4948638;28;100739;-70
2024/01/21 07:55:48;;;;;;;10.00;4.75;;;;;;;2.66;45.45;102348.94;4949245;28;102683;-70
2024/01/21 07:58:15;;;;;;;9.60;4.78;;;;;;;2.82;45.16;102344.97;4948161;28;98118;-70
2024/01/21 08:00:41;;;;;;;13.02;5.30;;;;;;;2.84;44.96;102356.28;4945328;28;97148;-71
2024/01/21 08:03:07;;;;;;;10.80;5.35;;;;;;;2.83;44.35;102341.47;4947451;28;101976;-71
2024/01/21 08:05:35;;;;;;;9.90;4.55;;;;;;;2.99;44.10;102334.84;4949104;28;98757;-70
2024/01/21 08:08:02;;;;;;;9.13;5.00;;;;;;;3.02;43.28;102334.94;4950320;28;97500;-68
2024/01/21 08:10:29;;;;;;;9.73;5.00;;;;;;;3.07;44.08;102330.69;4950215;28;97260;-68
2024/01/21 08:12:55;;;;;;;11.85;4.93;;;;;;;3.16;43.41;102331.72;4950851;28;98993;-69
2024/01/21 08:15:21;;;;;;;12.02;4.63;;;;;;;3.15;42.25;102339.56;4950264;28;99797;-70
2024/01/21 08:17:48;;;;;;;8.98;4.68;;;;;;;3.12;43.05;102335.13;4951099;28;96770;-68
2024/01/21 08:20:14;;;;;;;11.35;4.38;;;;;;;3.27;42.37;102326.72;4945449;28;97282;-69
2024/01/21 08:22:43;;;;;;;8.43;4.45;;;;;;;3.41;41.57;102327.88;4943760;28;98934;-69
2024/01/21 08:25:10;;;;;;;9.00;4.88;;;;;;;3.22;41.85;102325.72;4945477;28;98825;-68
2024/01/21 08:27:36;;;;;;;6.68;4.22;;;;;;;3.17;41.42;102309.97;4950891;28;96868;-69
2024/01/21 08:30:04;;;;;;;9.50;4.40;;;;;;;3.44;41.40;102306.13;4950359;28;99000;-69
2024/01/21 08:32:30;;;;;;;6.63;4.28;;;;;;;3.64;40.61;102298.63;4947946;28;99026;-70
2024/01/21 08:34:57;;;;;;;7.93;4.30;;;;;;;3.58;40.85;102299.41;4947944;28;99347;-70
2024/01/21 08:37:23;;;;;;;11.80;4.00;;;;;;;3.76;40.85;102301.47;4946528;28;96994;-70
2024/01/21 08:39:51;;;;;;;8.02;3.92;;;;;;;3.69;40.57;102302.22;4951842;28;97351;-75
2024/01/21 08:42:19;;;;;;;8.73;4.25;;;;;;;3.78;40.05;102307.59;4938325;28;98856;-75
2024/01/21 08:44:46;;;;;;;6.95;4.05;;;;;;;3.81;40.28;102312.88;4945610;28;99379;-70
2024/01/21 08:47:12;;;;;;;9.10;4.35;;;;;;;3.99;39.97;102316.69;4948878;28;96928;-70
2024/01/21 08:49:38;;;;;;;10.60;4.70;;;;;;;4.07;39.25;102310.72;4951237;28;97070;-73
2024/01/21 08:52:05;;;;;;;11.98;4.60;;;;;;;4.26;39.72;102303.19;4948336;28;98930;-71
2024/01/21 08:54:32;;;;;;;8.65;3.92;;;;;;;4.04;39.17;102305.41;4944121;28;99453;-70
2024/01/21 08:57:00;;;;;;;9.57;4.35;;;;;;;4.17;39.18;102297.78;4948323;28;97592;-71
2024/01/21 08:59:26;;;;;;;8.40;3.50;;;;;;;4.12;38.80;102294.22;4937241;28;98402;-70
2024/01/21 09:01:52;;;;;;;8.30;3.80;;;;;;;4.10;38.66;102289.81;4944983;28;99359;-70
2024/01/21 09:04:19;;;;;;;8.15;4.18;;;;;;;4.10;38.23;102284.59;4944846;28;99702;-70
2024/01/21 09:06:45;;;;;;;10.88;4.85;;;;;;;4.08;38.01;102279.31;4941711;28;97400;-77
2024/01/21 09:09:12;;;;;;;6.32;3.50;;;;;;;4.17;38.06;102284.72;4947309;28;97704;-72
2024/01/21 09:11:39;;;;;;;10.18;3.50;;;;;;;4.20;38.00;102291.72;4946064;28;101699;-71
2024/01/21 09:14:07;;;;;;;5.40;3.33;;;;;;;4.50;37.00;102278.19;4949143;28;98712;-71
2024/01/21 09:16:34;;;;;;;11.25;4.10;;;;;;;4.52;37.36;102285.22;4948171;28;97551;-71
2024/01/21 09:19:01;;;;;;;7.60;3.67;;;;;;;4.52;36.63;102285.22;4946159;28;96920;-76
2024/01/21 09:21:27;;;;;;;6.10;3.65;;;;;;;4.62;35.79;102289.72;4947771;28;99330;-77
2024/01/21 09:23:54;;;;;;;8.82;3.83;;;;;;;4.63;35.94;102287.97;4945710;28;98950;-77
2024/01/21 09:26:21;;;;;;;6.95;3.53;;;;;;;4.43;36.26;102279.84;4950773;28;98864;-76
2024/01/21 09:28:47;;;;;;;5.70;3.30;;;;;;;4.71;36.30;102296.81;4948028;28;97713;-76
2024/01/21 09:31:15;;;;;;;8.77;3.25;;;;;;;4.76;36.13;102289.91;4941850;28;99333;-76
2024/01/21 09:33:42;;;;;;;6.55;2.97;;;;;;;4.90;34.36;102296.19;4944975;28;100700;-76
2024/01/21 09:36:08;;;;;;;7.38;2.88;;;;;;;4.91;34.45;102294.44;4946792;28;98089;-70
2024/01/21 09:38:35;;;;;;;7.82;3.28;;;;;;;5.12;34.00;102281.59;4944612;28;97816;-77
2024/01/21 09:41:09;;;;;;;7.22;3.38;;;;;;;5.01;33.59;102280.59;4947293;28;98867;-76
2024/01/21 09:43:41;;;;;;;9.05;3.00;;;;;;;4.87;34.10;102277.78;4945684;28;101748;-76
2024/01/21 09:46:08;;;;;;;6.03;2.28;;;;;;;4.78;33.77;102278.59;4946921;28;97236;-76
2024/01/21 09:48:37;;;;;;;4.22;2.38;;;;;;;4.87;33.52;102264.69;4947287;28;98512;-76
2024/01/21 09:51:06;;;;;;;5.13;2.95;;;;;;;5.00;33.53;102261.38;4944471;28;101301;-76
2024/01/21 09:53:32;;;;;;;10.02;3.00;;;;;;;4.98;33.80;102244.78;4940714;28;98935;-76
2024/01/21 09:56:05;;;;;;;7.45;3.13;;;;;;;5.03;33.81;102243.06;4942388;28;96971;-76
2024/01/21 09:58:34;;;;;;;6.53;3.13;;;;;;;5.03;33.96;102244.81;4942420;28;96893;-76
2024/01/21 10:01:01;;;;;;;6.00;3.35;;;;;;;5.02;34.06;102241.31;4942475;28;99015;-76
2024/01/21 10:03:27;;;;;;;6.80;3.17;;;;;;;5.15;34.56;102227.47;4947304;28;98093;-76
2024/01/21 10:05:55;;;;;;;8.07;3.03;;;;;;;5.26;34.18;102218.81;4946730;28;98159;-76
2024/01/21 10:08:21;;;;;;;7.13;3.45;;;;;;;5.29;33.96;102227.63;4946285;28;97625;-75
2024/01/21 10:10:48;;;;;;;8.70;2.90;;;;;;;5.38;34.11;102218.97;4950062;28;99646;-76
2024/01/21 10:13:14;;;;;;;6.13;3.30;;;;;;;5.34;33.73;102207.56;4950096;28;99159;-75
2024/01/21 10:15:40;;;;;;;9.25;3.38;;;;;;;5.45;33.95;102205.03;4949307;28;97561;-76
2024/01/21 10:18:07;;;;;;;10.35;2.97;;;;;;;5.46;33.97;102206.78;4947534;28;99104;-76
2024/01/21 10:20:36;;;;;;;6.05;2.90;;;;;;;5.51;33.55;102205.09;4947199;28;98827;-76
2024/01/21 10:23:10;;;;;;;8.20;3.33;;;;;;;5.48;33.67;102194.56;4947831;28;99220;-76
2024/01/21 10:25:38;;;;;;;5.78;2.92;;;;;;;5.57;33.22;102195.53;4948696;28;97478;-77
2024/01/21 10:28:05;;;;;;;5.53;2.97;;;;;;;5.41;32.89;102183.16;4947040;28;97308;-77
2024/01/21 10:30:32;;;;;;;7.10;3.60;;;;;;;5.37;33.70;102176.16;4946967;28;99741;-77
2024/01/21 10:33:00;;;;;;;5.85;2.92;;;;;;;5.33;33.10;102190.06;4946389;28;98770;-77
2024/01/21 10:35:26;;;;;;;7.07;2.70;;;;;;;5.61;33.45;102181.56;4943368;28;97024;-76
2024/01/21 10:37:53;;;;;;;6.50;2.97;;;;;;;5.68;33.22;102187.75;4945551;28;97315;-76
2024/01/21 10:40:21;;;;;;;6.60;2.97;;;;;;;5.68;32.50;102190.38;4948403;28;98917;-76
2024/01/21 10:42:53;;;;;;;5.85;2.83;;;;;;;5.65;32.78;102184.22;4947673;28;99223;-76
2024/01/21 10:45:22;;;;;;;6.13;2.75;;;;;;;5.71;32.32;102172.00;4946752;28;97121;-76
2024/01/21 10:47:50;;;;;;;11.48;2.80;;;;;;;5.80;32.58;102168.59;4948164;28;97771;-76
2024/01/21 10:50:17;;;;;;;5.80;3.05;;;;;;;5.74;32.20;102171.16;4948346;28;97897;-76
2024/01/21 10:52:45;;;;;;;4.35;2.60;;;;;;;5.53;32.21;102171.88;4946656;28;99007;-76
2024/01/21 10:55:12;;;;;;;4.82;2.47;;;;;;;5.60;31.58;102173.69;4942041;28;97587;-76
2024/01/21 10:57:40;;;;;;;6.03;2.35;;;;;;;5.67;31.23;102165.00;4948396;28;98350;-76
2024/01/21 11:00:09;;;;;;;3.92;2.08;;;;;;;5.97;30.66;102169.63;4945789;28;97596;-76
2024/01/21 11:02:36;;;;;;;5.65;1.90;;;;;;;6.05;29.99;102167.00;4947704;28;98968;-77
2024/01/21 11:05:02;;;;;;;3.63;2.15;;;;;;;5.94;30.16;102174.84;4947177;28;97075;-77
2024/01/21 11:07:31;;;;;;;5.20;1.75;;;;;;;5.87;29.74;102158.19;4949974;28;100189;-75
2024/01/21 11:09:58;;;;;;;4.15;2.10;;;;;;;5.84;30.07;102147.63;4942992;28;98100;-76
2024/01/21 11:12:24;;;;;;;5.15;2.08;;;;;;;5.78;30.49;102147.59;4945181;28;101450;-76
2024/01/21 11:14:52;;;;;;;5.18;1.98;;;;;;;5.78;29.82;102142.34;4941692;28;97534;-76
2024/01/21 11:17:18;;;;;;;3.50;1.70;;;;;;;5.85;30.69;102146.75;4942325;28;96990;-76
2024/01/21 11:19:51;;;;;;;5.15;2.05;;;;;;;5.92;30.51;102155.56;4945849;28;102299;-76
2024/01/21 11:22:20;;;;;;;4.55;2.05;;;;;;;5.90;30.39;102163.47;4945346;28;101646;-76
2024/01/21 11:24:47;;;;;;;7.85;1.95;;;;;;;5.80;30.50;102150.22;4947518;28;97826;-76